Time;durP1;ratioP1;P1;durP2;ratioP2;P2;SDS_P1;SDS_P2;PMS_P1;PMS_P2;Temp;Humidity;BMP_temperature;BMP_pressure;BME280_temperature;BME280_humidity;BME280_pressure;Samples;Min_cycle;Max_cycle;Signal;HPM_P1;HPM_P2
2022/12/26 00:01:10;;;;;;;6.97;5.07;;;;;;;9.17;100.00;99875.56;5000903;28;20253;-66
2022/12/26 00:03:36;;;;;;;5.70;5.10;;;;;;;9.19;100.00;99863.50;5019292;28;20178;-66
2022/12/26 00:06:01;;;;;;;5.13;4.63;;;;;;;9.12;100.00;99856.19;5014189;28;20190;-67
2022/12/26 00:08:27;;;;;;;4.73;4.27;;;;;;;9.16;100.00;99855.94;5015277;28;20179;-66
2022/12/26 00:10:52;;;;;;;6.03;5.00;;;;;;;8.91;100.00;99846.13;5007760;28;20531;-66
2022/12/26 00:13:18;;;;;;;5.93;4.80;;;;;;;9.19;100.00;99849.81;5020529;28;20183;-66
2022/12/26 00:15:44;;;;;;;5.60;5.00;;;;;;;9.11;100.00;99836.56;5006414;28;20708;-66
2022/12/26 00:18:09;;;;;;;5.10;4.60;;;;;;;8.89;100.00;99829.97;5008412;28;20185;-66
2022/12/26 00:20:34;;;;;;;7.07;4.63;;;;;;;8.98;100.00;99836.38;5005699;28;20218;-66
2022/12/26 00:23:00;;;;;;;6.20;5.07;;;;;;;8.78;100.00;99833.13;5020054;28;20586;-66
2022/12/26 00:25:26;;;;;;;4.67;4.23;;;;;;;8.95;100.00;99839.94;5015025;28;20200;-66
2022/12/26 00:27:51;;;;;;;6.73;5.53;;;;;;;8.90;100.00;99838.53;5029727;28;20187;-67
2022/12/26 00:30:16;;;;;;;7.00;4.90;;;;;;;9.06;100.00;99841.94;5006977;28;20263;-66
2022/12/26 00:32:42;;;;;;;5.80;5.20;;;;;;;9.06;100.00;99841.13;5019314;28;20277;-66
2022/12/26 00:35:07;;;;;;;5.73;5.13;;;;;;;9.08;100.00;99836.72;5014840;28;20583;-67
2022/12/26 00:37:33;;;;;;;5.90;5.30;;;;;;;9.09;100.00;99852.06;5013185;28;20570;-67
2022/12/26 00:39:58;;;;;;;5.30;4.60;;;;;;;9.11;100.00;99847.66;5010743;28;20651;-66
2022/12/26 00:42:23;;;;;;;4.93;4.43;;;;;;;9.12;100.00;99843.38;5020260;28;20709;-66
2022/12/26 00:44:48;;;;;;;7.13;5.03;;;;;;;9.16;100.00;99848.22;5030360;28;20178;-66
2022/12/26 00:47:14;;;;;;;5.90;5.27;;;;;;;9.15;100.00;99843.19;5014271;28;20183;-66
2022/12/26 00:49:39;;;;;;;6.07;5.27;;;;;;;9.20;100.00;99843.78;5014923;28;20199;-65
2022/12/26 00:52:04;;;;;;;5.57;4.47;;;;;;;9.15;100.00;99830.38;5002821;28;20223;-66
2022/12/26 00:54:30;;;;;;;5.73;4.57;;;;;;;9.06;100.00;99833.44;5014561;28;20179;-66
2022/12/26 00:56:55;;;;;;;7.40;4.73;;;;;;;9.10;100.00;99834.91;5011367;28;20217;-66
2022/12/26 00:59:20;;;;;;;4.63;4.13;;;;;;;9.09;100.00;99839.22;5012169;28;20596;-66
2022/12/26 01:01:46;;;;;;;6.27;4.70;;;;;;;9.03;100.00;99840.38;5016473;28;20260;-66
2022/12/26 01:04:11;;;;;;;7.80;4.73;;;;;;;9.13;100.00;99843.28;5016446;28;20186;-66
2022/12/26 01:06:36;;;;;;;5.03;4.53;;;;;;;9.17;100.00;99854.22;5013870;28;20650;-66
2022/12/26 01:09:01;;;;;;;6.00;5.13;;;;;;;9.07;100.00;99846.16;5014153;28;20182;-66
2022/12/26 01:11:38;;;;;;;5.17;4.67;;;;;;;9.11;100.00;99845.09;5014238;28;20799;-66
2022/12/26 01:14:04;;;;;;;6.73;4.70;;;;;;;9.26;100.00;99846.00;5009900;28;20274;-66
2022/12/26 01:16:29;;;;;;;5.73;4.87;;;;;;;9.28;100.00;99843.34;5011891;28;20278;-66
2022/12/26 01:18:54;;;;;;;5.10;4.60;;;;;;;9.30;100.00;99855.22;5014285;28;20203;-66
2022/12/26 01:21:20;;;;;;;6.70;4.43;;;;;;;9.39;100.00;99860.75;5012472;28;20680;-66
2022/12/26 01:23:45;;;;;;;5.13;4.63;;;;;;;9.31;100.00;99856.03;5019646;28;20179;-65
2022/12/26 01:26:10;;;;;;;7.33;4.23;;;;;;;9.32;100.00;99853.38;5013273;28;20185;-65
2022/12/26 01:28:36;;;;;;;5.83;5.00;;;;;;;9.32;100.00;99861.09;5012833;28;20186;-65
2022/12/26 01:31:02;;;;;;;6.23;4.23;;;;;;;9.39;100.00;99859.03;5009825;28;20241;-65
2022/12/26 01:33:28;;;;;;;6.00;4.70;;;;;;;9.61;100.00;99858.72;5008412;28;20184;-65
2022/12/26 01:35:53;;;;;;;4.67;4.27;;;;;;;9.66;100.00;99879.84;5012361;28;20658;-65
2022/12/26 01:38:20;;;;;;;6.90;4.17;;;;;;;9.77;100.00;99873.28;5012406;28;20193;-65
2022/12/26 01:40:46;;;;;;;5.07;4.57;;;;;;;9.87;100.00;99873.59;5005501;28;20256;-65
2022/12/26 01:43:12;;;;;;;5.40;4.20;;;;;;;9.85;100.00;99876.25;5023651;28;20676;-65
2022/12/26 01:45:38;;;;;;;7.20;4.40;;;;;;;9.85;100.00;99876.25;5013623;28;20190;-65
2022/12/26 01:48:21;;;;;;;5.43;3.73;;;;;;;9.73;100.00;99882.88;5013040;28;20195;-65
2022/12/26 01:51:06;;;;;;;6.20;4.50;;;;;;;9.81;100.00;99891.00;4994118;28;20245;-65
2022/12/26 01:53:36;;;;;;;4.47;3.97;;;;;;;9.96;100.00;99885.91;5011779;28;20642;-65
2022/12/26 01:56:10;;;;;;;5.47;3.67;;;;;;;9.85;100.00;99879.66;5008221;28;20278;-65
2022/12/26 01:58:46;;;;;;;4.23;3.83;;;;;;;9.81;100.00;99878.16;5010507;28;20190;-66
2022/12/26 02:01:12;;;;;;;5.60;4.00;;;;;;;9.84;100.00;99870.28;5001491;28;20234;-66
2022/12/26 02:06:25;;;;;;;7.40;4.50;;;;;;;9.73;100.00;99884.63;5013153;28;20193;-66
2022/12/26 02:08:50;;;;;;;5.50;3.83;;;;;;;9.78;100.00;99885.22;5011786;28;20186;-65
2022/12/26 02:11:26;;;;;;;5.77;4.00;;;;;;;9.79;100.00;99892.00;5012378;28;20324;-66
2022/12/26 02:13:52;;;;;;;6.63;3.80;;;;;;;9.88;100.00;99903.53;5002781;28;20308;-66
2022/12/26 02:16:19;;;;;;;6.53;3.87;;;;;;;10.04;100.00;99896.63;5012635;28;20657;-66
2022/12/26 02:18:45;;;;;;;3.57;3.27;;;;;;;10.13;100.00;99895.28;5013224;28;20226;-65
2022/12/26 02:21:30;;;;;;;6.93;3.70;;;;;;;10.06;100.00;99899.94;5011506;28;20810;-65
2022/12/26 02:24:14;;;;;;;6.23;4.07;;;;;;;10.17;100.00;99894.19;5011373;28;20194;-65
2022/12/26 02:27:07;;;;;;;5.63;4.10;;;;;;;10.11;100.00;99890.22;5011370;28;20175;-65
2022/12/26 02:29:57;;;;;;;4.50;3.70;;;;;;;10.15;100.00;99881.41;5008315;28;20183;-65
2022/12/26 02:32:22;;;;;;;4.17;3.70;;;;;;;10.31;100.00;99890.84;5012120;28;20233;-65
2022/12/26 02:35:00;;;;;;;4.70;3.70;;;;;;;10.21;100.00;99898.25;5012969;28;20182;-66
2022/12/26 02:38:03;;;;;;;5.30;3.67;;;;;;;10.27;100.00;99910.75;5012294;28;20237;-65
2022/12/26 02:41:08;;;;;;;5.90;3.80;;;;;;;10.28;100.00;99903.88;5006130;28;20561;-65
2022/12/26 02:43:54;;;;;;;6.63;3.83;;;;;;;10.44;100.00;99904.69;4928587;28;20197;-65
2022/12/26 03:13:09;;;;;;;4.10;3.70;;;;;;;10.33;100.00;99889.84;5012834;28;20269;-66
2022/12/26 03:15:21;;;;;;;5.30;3.20;;;;;;;10.42;100.00;99867.94;5009979;28;20202;-66
2022/12/26 03:17:55;;;;;;;4.83;3.27;;;;;;;10.38;100.00;99881.91;4992922;28;20189;-67
2022/12/26 03:20:37;;;;;;;6.13;3.80;;;;;;;10.37;100.00;99884.53;4983912;28;20201;-67
2022/12/26 03:23:09;;;;;;;4.43;3.37;;;;;;;10.39;100.00;99887.88;5009572;28;20221;-67
2022/12/26 03:28:18;;;;;;;5.20;3.67;;;;;;;10.26;100.00;99890.28;5009948;28;20233;-66
2022/12/26 03:30:49;;;;;;;4.83;3.20;;;;;;;10.23;100.00;99883.53;4980664;28;20223;-66
2022/12/26 03:36:10;;;;;;;6.17;3.27;;;;;;;9.99;100.00;99890.91;5009136;28;20348;-66
2022/12/26 03:38:56;;;;;;;3.80;3.40;;;;;;;9.89;100.00;99887.19;4993209;28;20183;-66
2022/12/26 04:44:23;;;;;;;10.67;4.33;;;;;;;10.15;100.00;99903.72;5016497;28;20669;-67
2022/12/26 04:46:51;;;;;;;5.07;3.60;;;;;;;10.14;100.00;99909.78;5011088;28;20191;-67
2022/12/26 04:52:04;;;;;;;4.27;3.60;;;;;;;10.26;100.00;99893.69;5019060;28;20225;-67
2022/12/26 04:54:29;;;;;;;4.20;3.37;;;;;;;10.29;100.00;99885.78;5013385;28;20190;-66
2022/12/26 04:56:55;;;;;;;6.23;3.30;;;;;;;10.15;100.00;99888.31;5014039;28;20564;-66
2022/12/26 04:59:21;;;;;;;3.83;3.00;;;;;;;10.29;100.00;99890.09;5014423;28;20557;-66
2022/12/26 05:10:21;;;;;;;5.67;3.03;;;;;;;10.21;100.00;99894.84;5005400;28;20241;-67
2022/12/26 05:12:47;;;;;;;6.57;3.77;;;;;;;10.38;100.00;99881.06;5014315;28;20194;-66
2022/12/26 05:15:13;;;;;;;3.90;3.17;;;;;;;10.45;100.00;99892.66;5012733;28;20669;-67
2022/12/26 05:29:04;;;;;;;3.50;2.67;;;;;;;10.25;100.00;99876.59;5013967;28;20270;-66
2022/12/26 05:31:30;;;;;;;4.90;3.27;;;;;;;10.13;100.00;99890.13;5013118;28;20304;-67
2022/12/26 05:34:05;;;;;;;7.27;3.00;;;;;;;10.03;100.00;99894.94;5026717;28;20245;-67
2022/12/26 05:36:42;;;;;;;7.93;3.27;;;;;;;10.07;100.00;99887.91;5013919;28;20233;-66
2022/12/26 05:39:08;;;;;;;8.27;3.30;;;;;;;10.18;100.00;99877.84;5025938;28;20237;-66
2022/12/26 05:41:34;;;;;;;4.07;3.27;;;;;;;10.20;100.00;99876.03;4999891;28;20316;-66
2022/12/26 05:44:00;;;;;;;3.73;2.67;;;;;;;10.33;100.00;99884.69;5008845;28;20179;-66
2022/12/26 05:46:25;;;;;;;3.47;2.90;;;;;;;10.24;100.00;99890.34;5013499;28;20696;-66
2022/12/26 05:48:51;;;;;;;5.47;3.00;;;;;;;10.26;100.00;99898.81;5028254;28;20557;-66
2022/12/26 05:51:16;;;;;;;5.00;3.40;;;;;;;10.29;100.00;99901.19;5005674;28;20322;-65
2022/12/26 05:53:41;;;;;;;5.93;2.93;;;;;;;10.10;100.00;99896.28;5019372;28;20186;-66
2022/12/26 05:56:10;;;;;;;3.23;2.57;;;;;;;10.15;100.00;99899.41;5012933;28;20220;-66
2022/12/26 05:58:36;;;;;;;4.60;3.43;;;;;;;10.18;100.00;99888.13;5008618;28;20199;-66
2022/12/26 06:01:10;;;;;;;4.37;3.13;;;;;;;10.09;100.00;99897.19;5002877;28;20709;-66
2022/12/26 06:03:36;;;;;;;3.63;2.83;;;;;;;10.28;100.00;99909.84;5012576;28;20174;-66
2022/12/26 06:06:02;;;;;;;4.07;2.60;;;;;;;10.39;100.00;99923.88;5012818;28;20712;-65
2022/12/26 06:08:28;;;;;;;6.13;3.20;;;;;;;10.51;100.00;99919.78;5008694;28;20266;-66
2022/12/26 06:10:53;;;;;;;5.73;2.90;;;;;;;10.48;100.00;99913.88;5002821;28;20263;-66
2022/12/26 06:13:18;;;;;;;5.37;2.80;;;;;;;10.56;100.00;99918.59;5021802;28;20270;-66
2022/12/26 06:15:43;;;;;;;5.23;2.90;;;;;;;10.58;100.00;99929.63;5008722;28;20206;-66
2022/12/26 06:18:09;;;;;;;4.13;3.23;;;;;;;10.56;100.00;99928.88;5011674;28;20186;-66
2022/12/26 06:20:37;;;;;;;5.47;3.23;;;;;;;10.69;100.00;99928.16;5007193;28;20249;-66
2022/12/26 06:23:03;;;;;;;5.07;2.87;;;;;;;10.62;100.00;99920.00;5027990;28;20229;-66
2022/12/26 06:25:28;;;;;;;4.57;3.17;;;;;;;10.58;100.00;99918.50;5011775;28;20210;-66
2022/12/26 06:27:53;;;;;;;5.60;2.90;;;;;;;10.60;100.00;99917.47;5011973;28;20252;-66
2022/12/26 06:30:19;;;;;;;3.73;2.80;;;;;;;10.62;100.00;99925.13;5005022;28;20186;-66
2022/12/26 06:32:44;;;;;;;6.33;3.30;;;;;;;10.49;100.00;99922.41;5025755;28;20183;-66
2022/12/26 06:35:09;;;;;;;5.83;3.63;;;;;;;10.53;100.00;99907.63;5012896;28;20179;-66
2022/12/26 06:37:34;;;;;;;5.43;3.17;;;;;;;10.38;100.00;99904.19;5012141;28;20252;-66
2022/12/26 06:40:00;;;;;;;3.60;2.73;;;;;;;10.39;100.00;99898.97;5012934;28;20581;-66
2022/12/26 06:42:25;;;;;;;3.47;2.80;;;;;;;10.33;100.00;99904.44;5017869;28;20226;-66
2022/12/26 06:44:50;;;;;;;5.10;3.50;;;;;;;10.39;100.00;99911.00;5012939;28;20697;-66
2022/12/26 06:47:15;;;;;;;6.37;3.57;;;;;;;10.27;100.00;99908.19;5012202;28;20541;-66
2022/12/26 06:49:41;;;;;;;6.10;3.20;;;;;;;10.31;100.00;99916.56;5027847;28;20229;-66
2022/12/26 06:52:07;;;;;;;5.43;3.43;;;;;;;10.36;100.00;99922.28;5016917;28;20681;-66
2022/12/26 06:54:33;;;;;;;5.53;3.33;;;;;;;10.31;100.00;99917.38;5012511;28;20233;-66
2022/12/26 06:56:59;;;;;;;4.83;3.30;;;;;;;10.35;100.00;99920.59;5011878;28;20290;-66
2022/12/26 06:59:24;;;;;;;4.47;2.80;;;;;;;10.44;100.00;99917.56;5011755;28;20694;-66
2022/12/26 07:01:49;;;;;;;5.17;3.13;;;;;;;10.43;100.00;99907.34;5015935;28;20263;-66
2022/12/26 07:04:15;;;;;;;3.87;2.87;;;;;;;10.52;100.00;99901.69;5014118;28;20179;-66
2022/12/26 07:06:40;;;;;;;3.73;3.07;;;;;;;10.54;100.00;99904.16;5011834;28;20257;-66
2022/12/26 07:09:09;;;;;;;6.40;2.77;;;;;;;10.41;100.00;99906.63;5012013;28;20634;-66
2022/12/26 07:11:37;;;;;;;4.53;3.33;;;;;;;10.43;100.00;99907.34;5004008;28;20807;-66
2022/12/26 07:14:03;;;;;;;5.07;3.00;;;;;;;10.44;100.00;99912.41;5003194;28;20183;-66
2022/12/26 07:16:29;;;;;;;5.40;3.60;;;;;;;10.36;100.00;99926.56;5024424;28;20218;-66
2022/12/26 07:18:56;;;;;;;7.53;3.53;;;;;;;10.39;100.00;99947.81;5026945;28;20552;-66
2022/12/26 07:21:23;;;;;;;4.83;3.40;;;;;;;10.46;100.00;99948.31;5001866;28;20768;-64
2022/12/26 07:23:49;;;;;;;5.17;3.40;;;;;;;10.56;100.00;99957.16;5010227;28;20261;-65
2022/12/26 07:26:14;;;;;;;6.53;3.30;;;;;;;10.58;100.00;99964.78;5007147;28;20278;-65
2022/12/26 07:28:39;;;;;;;3.83;3.07;;;;;;;10.54;100.00;99966.69;5011683;28;20649;-65
2022/12/26 07:31:05;;;;;;;3.47;3.00;;;;;;;10.53;100.00;99966.78;5003225;28;20228;-65
2022/12/26 07:33:30;;;;;;;6.27;3.13;;;;;;;10.39;100.00;99970.97;5018832;28;20182;-65
2022/12/26 07:36:00;;;;;;;5.63;3.20;;;;;;;10.32;100.00;99972.22;5010711;28;20201;-66
2022/12/26 07:38:25;;;;;;;7.10;3.50;;;;;;;10.29;100.00;99987.78;5009036;28;20274;-66
2022/12/26 07:40:54;;;;;;;4.93;3.13;;;;;;;10.29;100.00;99975.75;5007286;28;20297;-66
2022/12/26 07:43:19;;;;;;;9.77;3.47;;;;;;;10.22;100.00;99982.16;4989876;28;20194;-67
2022/12/26 07:45:44;;;;;;;6.40;3.50;;;;;;;10.01;100.00;99986.75;5025208;28;20179;-66
2022/12/26 07:48:10;;;;;;;4.10;3.00;;;;;;;10.02;100.00;99983.22;5010682;28;20630;-66
2022/12/26 07:50:35;;;;;;;6.27;3.40;;;;;;;10.01;100.00;99986.75;5004269;28;20252;-67
2022/12/26 07:53:00;;;;;;;5.60;3.07;;;;;;;9.95;100.00;99974.22;5009975;28;20269;-66
2022/12/26 07:55:25;;;;;;;6.07;3.60;;;;;;;9.91;100.00;99971.00;5008932;28;20187;-67
2022/12/26 07:57:51;;;;;;;4.23;3.23;;;;;;;9.85;100.00;99964.44;5003457;28;20210;-67
2022/12/26 08:00:18;;;;;;;3.93;3.03;;;;;;;9.87;100.00;99959.19;4992635;28;21004;-67
2022/12/26 08:02:43;;;;;;;8.03;3.30;;;;;;;9.83;100.00;99955.16;5024317;28;20220;-67
2022/12/26 08:05:09;;;;;;;5.33;3.27;;;;;;;9.83;100.00;99948.25;5011407;28;20226;-67
2022/12/26 08:07:34;;;;;;;6.03;2.97;;;;;;;9.94;100.00;99926.31;5010425;28;20183;-67
2022/12/26 08:09:59;;;;;;;5.50;3.53;;;;;;;9.83;100.00;99921.75;5008220;28;20233;-67
2022/12/26 08:12:25;;;;;;;4.97;3.17;;;;;;;9.99;100.00;99919.19;5017443;28;20223;-67
2022/12/26 08:14:51;;;;;;;7.17;3.30;;;;;;;9.97;100.00;99941.53;5008162;28;20197;-67
2022/12/26 08:17:17;;;;;;;5.80;3.47;;;;;;;9.92;100.00;99962.34;5018761;28;20225;-67
2022/12/26 08:19:42;;;;;;;6.57;3.77;;;;;;;9.95;100.00;99971.66;5011235;28;20191;-67
2022/12/26 08:22:07;;;;;;;4.80;3.00;;;;;;;9.89;100.00;99946.28;4998400;28;20757;-68
2022/12/26 08:24:32;;;;;;;5.10;3.23;;;;;;;9.97;100.00;99944.97;5012538;28;20261;-67
2022/12/26 08:26:58;;;;;;;5.57;3.20;;;;;;;10.08;100.00;99941.78;5014474;28;20266;-63
2022/12/26 08:29:23;;;;;;;10.13;3.63;;;;;;;10.14;100.00;99950.91;5014895;28;20177;-64
2022/12/26 08:31:48;;;;;;;5.43;3.73;;;;;;;10.18;100.00;99950.66;5017912;28;20325;-67
2022/12/26 08:34:14;;;;;;;5.37;3.23;;;;;;;10.14;100.00;99961.19;5007165;28;20254;-67
2022/12/26 08:36:39;;;;;;;5.23;3.20;;;;;;;10.10;100.00;99975.94;5028327;28;20214;-68
2022/12/26 08:39:05;;;;;;;5.20;3.10;;;;;;;10.14;100.00;99981.75;5013130;28;20193;-68
2022/12/26 08:41:30;;;;;;;5.53;3.63;;;;;;;9.98;100.00;99976.63;5004241;28;20254;-68
2022/12/26 08:43:55;;;;;;;6.17;3.70;;;;;;;10.14;100.00;99974.03;5014849;28;20185;-68
2022/12/26 08:46:21;;;;;;;4.80;3.50;;;;;;;10.14;100.00;99989.47;5014236;28;20585;-68
2022/12/26 08:48:47;;;;;;;8.00;4.20;;;;;;;10.16;100.00;100003.88;5009841;28;20179;-68
2022/12/26 08:51:19;;;;;;;5.43;3.80;;;;;;;10.25;100.00;100006.88;4996237;28;20705;-67
2022/12/26 08:53:45;;;;;;;7.37;3.27;;;;;;;10.32;100.00;100018.50;5007949;28;20178;-67
2022/12/26 08:56:14;;;;;;;10.23;3.60;;;;;;;10.25;100.00;100035.16;4995091;28;20195;-67
2022/12/26 08:58:40;;;;;;;5.90;3.83;;;;;;;10.27;100.00;100039.31;5014363;28;20174;-67
2022/12/26 09:01:15;;;;;;;3.70;3.20;;;;;;;10.20;100.00;100037.97;5005358;28;20238;-67
2022/12/26 09:03:41;;;;;;;4.27;3.00;;;;;;;10.19;100.00;100059.44;5012758;28;20182;-67
2022/12/26 09:06:07;;;;;;;3.87;3.00;;;;;;;10.33;100.00;100058.69;5008868;28;20203;-66
2022/12/26 09:08:34;;;;;;;3.10;2.50;;;;;;;10.39;100.00;100049.84;5004838;28;20270;-67
2022/12/26 09:11:03;;;;;;;3.03;2.40;;;;;;;10.41;100.00;100051.44;5021464;28;20233;-67
2022/12/26 09:13:29;;;;;;;3.27;2.83;;;;;;;10.52;100.00;100053.41;5021646;28;20241;-67
2022/12/26 09:15:55;;;;;;;4.27;3.10;;;;;;;10.45;100.00;100054.66;5011795;28;20194;-67
2022/12/26 09:18:20;;;;;;;2.73;2.33;;;;;;;10.40;100.00;100064.38;5012825;28;20187;-66
2022/12/26 09:20:45;;;;;;;3.37;2.40;;;;;;;10.29;100.00;100060.59;5009159;28;20579;-66
2022/12/26 09:23:11;;;;;;;2.50;2.30;;;;;;;10.38;100.00;100077.31;5022773;28;20194;-66
2022/12/26 09:25:36;;;;;;;2.80;2.50;;;;;;;10.41;100.00;100071.19;5029208;28;20182;-67
2022/12/26 09:28:01;;;;;;;4.57;2.87;;;;;;;10.44;100.00;100076.16;5013600;28;20191;-67
2022/12/26 09:30:27;;;;;;;4.80;2.70;;;;;;;10.63;100.00;100066.50;5003564;28;20244;-67
2022/12/26 09:32:52;;;;;;;3.90;3.07;;;;;;;10.74;100.00;100065.94;5013523;28;20194;-68
2022/12/26 09:35:18;;;;;;;3.03;2.53;;;;;;;10.77;100.00;100059.78;5013582;28;20203;-67
2022/12/26 09:37:43;;;;;;;4.23;2.53;;;;;;;10.90;100.00;100045.31;5013430;28;20209;-67
2022/12/26 09:40:20;;;;;;;3.93;2.20;;;;;;;10.84;100.00;100047.38;5004520;28;20676;-67
2022/12/26 09:43:01;;;;;;;3.80;1.83;;;;;;;10.82;100.00;100045.72;5026854;28;20182;-67
2022/12/26 09:45:41;;;;;;;1.93;1.73;;;;;;;10.83;100.00;100072.28;5001569;28;20186;-67
2022/12/26 09:48:18;;;;;;;4.47;2.10;;;;;;;10.86;100.00;100084.16;5010950;28;20185;-67
2022/12/26 09:50:49;;;;;;;5.17;1.90;;;;;;;10.82;100.00;100084.31;5002129;28;20230;-67
2022/12/26 09:53:21;;;;;;;2.73;1.40;;;;;;;10.87;100.00;100078.91;5012675;28;20272;-67
2022/12/26 09:56:07;;;;;;;3.23;2.07;;;;;;;10.79;100.00;100081.94;5012130;28;20180;-66
2022/12/26 09:58:37;;;;;;;1.70;1.60;;;;;;;10.93;100.00;100082.91;5013142;28;20237;-67
2022/12/26 10:01:20;;;;;;;1.63;1.53;;;;;;;11.20;100.00;100077.09;5004832;28;20251;-67
2022/12/26 10:03:51;;;;;;;1.63;1.53;;;;;;;11.27;100.00;100068.91;5018703;28;20369;-67
2022/12/26 10:06:21;;;;;;;1.97;1.40;;;;;;;11.33;100.00;100072.06;5012400;28;20194;-68
2022/12/26 10:09:24;;;;;;;1.40;1.30;;;;;;;11.25;100.00;100078.50;5011731;28;20178;-68
2022/12/26 10:12:04;;;;;;;1.50;1.40;;;;;;;11.42;100.00;100068.94;5016453;28;20233;-67
2022/12/26 10:15:06;;;;;;;1.60;1.50;;;;;;;11.28;100.00;100051.72;5027195;28;20202;-67
2022/12/26 10:17:53;;;;;;;1.90;1.60;;;;;;;11.36;100.00;100035.81;5012128;28;20213;-68
2022/12/26 10:20:39;;;;;;;2.60;1.40;;;;;;;11.54;100.00;100065.66;5004994;28;20189;-68
2022/12/26 10:23:34;;;;;;;4.50;1.50;;;;;;;11.58;100.00;100089.47;5012092;28;20183;-68
2022/12/26 10:26:11;;;;;;;3.03;1.80;;;;;;;11.50;100.00;100086.53;4924555;28;20194;-68
2022/12/26 10:29:02;;;;;;;4.47;1.70;;;;;;;11.57;100.00;100086.09;5012987;28;20257;-68
2022/12/26 10:31:41;;;;;;;1.80;1.50;;;;;;;11.56;100.00;100066.41;4990579;28;20261;-68
2022/12/26 10:34:30;;;;;;;3.87;1.70;;;;;;;11.45;100.00;100072.19;5008103;28;20186;-68
2022/12/26 10:37:21;;;;;;;1.80;1.30;;;;;;;11.71;100.00;100074.13;5010732;28;20670;-68
2022/12/26 10:39:58;;;;;;;2.10;1.40;;;;;;;11.67;100.00;100075.22;5012827;28;20642;-67
2022/12/26 10:42:29;;;;;;;2.13;1.50;;;;;;;11.67;100.00;100075.22;5000363;28;20233;-67
2022/12/26 10:44:56;;;;;;;2.20;1.20;;;;;;;11.68;100.00;100084.63;5011078;28;20210;-67
2022/12/26 10:47:25;;;;;;;1.30;1.20;;;;;;;11.44;100.00;100080.81;5011232;28;20317;-68
2022/12/26 10:49:51;;;;;;;1.43;1.33;;;;;;;11.47;100.00;100090.09;5012297;28;20207;-67
2022/12/26 10:52:25;;;;;;;1.27;1.00;;;;;;;11.57;100.00;100086.09;5017603;28;20249;-67
2022/12/26 10:54:56;;;;;;;3.57;1.57;;;;;;;11.49;100.00;100082.31;5011055;28;20182;-68
2022/12/26 10:57:22;;;;;;;1.13;1.00;;;;;;;11.54;100.00;100094.00;5011973;28;20206;-67
2022/12/26 10:59:50;;;;;;;2.17;0.93;;;;;;;11.49;100.00;100102.91;5027252;28;20214;-67
2022/12/26 11:02:28;;;;;;;1.53;1.30;;;;;;;11.53;100.00;100096.66;5000783;28;20218;-67
2022/12/26 11:04:57;;;;;;;4.57;1.40;;;;;;;11.63;100.00;100090.03;5027158;28;20178;-67
2022/12/26 11:07:25;;;;;;;1.93;1.40;;;;;;;11.55;100.00;100089.69;5011911;28;20518;-67
2022/12/26 11:09:57;;;;;;;2.00;1.23;;;;;;;11.81;100.00;100103.59;5011762;28;20234;-68
2022/12/26 11:12:25;;;;;;;1.53;1.10;;;;;;;11.76;100.00;100095.31;5017505;28;20580;-67
2022/12/26 11:14:58;;;;;;;1.93;1.27;;;;;;;11.83;100.00;100099.16;5007360;28;20183;-67
2022/12/26 11:17:27;;;;;;;2.93;1.43;;;;;;;11.75;100.00;100091.88;5003561;28;20190;-68
2022/12/26 11:20:11;;;;;;;3.60;1.80;;;;;;;11.88;100.00;100098.88;4998273;28;20213;-67
2022/12/26 11:22:36;;;;;;;2.47;1.50;;;;;;;11.86;100.00;100105.91;5016546;28;20210;-67
2022/12/26 11:25:08;;;;;;;1.70;1.60;;;;;;;12.11;100.00;100093.19;5007420;28;20199;-67
2022/12/26 11:27:33;;;;;;;1.73;1.50;;;;;;;12.27;100.00;100095.66;5008496;28;20187;-67
2022/12/26 11:30:14;;;;;;;2.47;1.30;;;;;;;12.23;100.00;100099.34;5011632;28;20183;-67
2022/12/26 11:32:41;;;;;;;2.63;1.43;;;;;;;12.39;100.00;100098.41;5000306;28;20248;-67
2022/12/26 11:35:17;;;;;;;2.33;1.40;;;;;;;12.16;100.00;100102.41;5027038;28;20650;-67
2022/12/26 11:37:45;;;;;;;1.77;1.20;;;;;;;12.05;100.00;100101.31;5006795;28;20206;-67
2022/12/26 11:40:20;;;;;;;1.93;1.53;;;;;;;12.18;100.00;100101.41;4997110;28;20194;-68
2022/12/26 11:42:57;;;;;;;1.73;1.33;;;;;;;12.16;100.00;100094.69;5012122;28;20188;-67
2022/12/26 11:45:26;;;;;;;2.00;1.67;;;;;;;12.09;100.00;100099.38;5009998;28;20693;-67
2022/12/26 11:47:55;;;;;;;2.23;1.40;;;;;;;12.06;100.00;100091.84;5010737;28;20222;-67
2022/12/26 11:50:27;;;;;;;2.27;1.63;;;;;;;12.13;100.00;100093.13;5005050;28;20183;-67
2022/12/26 11:53:05;;;;;;;2.43;1.60;;;;;;;12.15;100.00;100087.88;5011229;28;20184;-68
2022/12/26 11:55:39;;;;;;;2.43;1.60;;;;;;;12.02;100.00;100086.03;5015604;28;20224;-67
2022/12/26 11:58:08;;;;;;;4.00;1.60;;;;;;;12.17;100.00;100098.88;5015147;28;20187;-68
2022/12/26 12:00:36;;;;;;;1.47;1.37;;;;;;;12.11;100.00;100097.53;4999201;28;20287;-68
2022/12/26 12:03:35;;;;;;;2.07;1.43;;;;;;;11.96;100.00;100094.13;5026322;28;20210;-67
2022/12/26 12:06:19;;;;;;;2.37;1.60;;;;;;;11.98;100.00;100084.53;4938185;29;20280;-68
2022/12/26 12:09:21;;;;;;;1.60;1.47;;;;;;;11.95;100.00;100084.72;4955046;29;20264;-67
2022/12/26 12:11:59;;;;;;;2.23;1.63;;;;;;;12.20;100.00;100078.09;4945045;28;20239;-68
2022/12/26 12:14:35;;;;;;;2.93;1.70;;;;;;;12.18;100.00;100059.28;4954631;29;20197;-68
2022/12/26 12:17:23;;;;;;;1.70;1.30;;;;;;;12.04;100.00;100060.97;4910335;29;20312;-67
2022/12/26 12:20:19;;;;;;;3.57;1.37;;;;;;;12.16;100.00;100066.31;4954532;28;20231;-68
2022/12/26 12:23:02;;;;;;;3.00;1.60;;;;;;;12.08;100.00;100062.47;4944954;29;20262;-67
2022/12/26 12:25:45;;;;;;;1.17;1.00;;;;;;;11.96;100.00;100063.22;4938656;29;20192;-67
2022/12/26 12:28:53;;;;;;;1.80;1.07;;;;;;;12.03;100.00;100067.06;4937946;29;20208;-68
2022/12/26 12:31:40;;;;;;;1.97;1.20;;;;;;;11.99;100.00;100059.59;4944888;28;20315;-67
2022/12/26 12:34:52;;;;;;;1.90;1.43;;;;;;;11.94;100.00;100062.44;4954167;28;20746;-67
2022/12/26 12:37:26;;;;;;;2.77;1.73;;;;;;;12.05;100.00;100059.22;4937685;29;20204;-68
2022/12/26 12:40:12;;;;;;;1.30;1.20;;;;;;;12.04;100.00;100071.28;4954186;29;20225;-67
2022/12/26 12:43:05;;;;;;;4.33;1.37;;;;;;;11.92;100.00;100072.00;4972836;28;20222;-67
2022/12/26 12:45:55;;;;;;;2.57;1.33;;;;;;;12.10;100.00;100070.91;4974419;28;20188;-67
2022/12/26 12:48:38;;;;;;;3.77;1.70;;;;;;;12.26;100.00;100068.22;5008462;28;20179;-67
2022/12/26 12:51:14;;;;;;;2.53;1.63;;;;;;;12.61;100.00;100072.06;5002815;28;20686;-68
2022/12/26 12:53:58;;;;;;;1.80;1.63;;;;;;;12.59;100.00;100069.59;5003082;28;20179;-67
2022/12/26 12:56:34;;;;;;;3.83;1.73;;;;;;;12.63;100.00;100065.09;5012547;28;20699;-68
2022/12/26 12:59:18;;;;;;;2.33;1.80;;;;;;;12.46;100.00;100068.72;5009026;28;20183;-68
2022/12/26 13:01:48;;;;;;;2.50;1.33;;;;;;;12.30;100.00;100061.09;5014924;28;20230;-67
2022/12/26 13:04:28;;;;;;;2.63;1.17;;;;;;;12.23;100.00;100065.84;5013168;28;20194;-67
2022/12/26 13:07:10;;;;;;;2.57;1.60;;;;;;;12.09;100.00;100061.53;4999867;28;20183;-68
2022/12/26 13:09:43;;;;;;;1.93;1.63;;;;;;;12.21;100.00;100052.19;5012684;28;20229;-67
2022/12/26 13:12:24;;;;;;;3.27;1.53;;;;;;;12.29;100.00;100046.56;5004902;28;20233;-67
2022/12/26 13:15:13;;;;;;;2.80;1.80;;;;;;;12.29;100.00;100043.16;5014253;28;20684;-67
2022/12/26 13:17:51;;;;;;;3.60;1.90;;;;;;;12.31;100.00;100042.13;4963640;28;20612;-68
2022/12/26 13:20:57;;;;;;;2.70;1.53;;;;;;;12.38;100.00;100047.75;5004487;28;20170;-67
2022/12/26 13:26:24;;;;;;;2.27;1.47;;;;;;;12.30;100.00;100053.38;5013322;28;20601;-68
2022/12/26 13:28:57;;;;;;;4.60;1.87;;;;;;;12.10;100.00;100046.88;5012721;28;20187;-67
2022/12/26 13:31:23;;;;;;;3.93;1.27;;;;;;;12.15;100.00;100042.25;5003949;28;20222;-67
2022/12/26 13:33:48;;;;;;;2.27;1.30;;;;;;;12.29;100.00;100045.75;5010591;28;20191;-66
2022/12/26 13:36:42;;;;;;;1.77;1.60;;;;;;;12.15;100.00;100039.69;5013115;28;20223;-66
2022/12/26 13:39:11;;;;;;;1.90;1.47;;;;;;;12.21;100.00;100041.06;5007853;28;20183;-66
2022/12/26 13:44:21;;;;;;;2.20;1.30;;;;;;;11.95;100.00;100030.56;5014920;28;20189;-66
2022/12/26 13:46:46;;;;;;;2.83;1.80;;;;;;;12.01;100.00;100026.84;5012868;28;20194;-66
2022/12/26 13:49:40;;;;;;;2.13;1.50;;;;;;;11.80;100.00;100019.47;5013716;28;20179;-66